createdAt,value
2024-03-04T00:00:12.564Z,25.49
2024-03-04T00:00:42.834Z,25.49
2024-03-04T00:01:12.798Z,25.48
2024-03-04T00:01:42.861Z,25.48
2024-03-04T00:02:12.828Z,25.48
2024-03-04T00:02:42.777Z,25.45
2024-03-04T00:03:12.758Z,25.48
2024-03-04T00:03:42.765Z,25.48
2024-03-04T00:04:12.872Z,25.45
2024-03-04T00:04:42.891Z,25.47
2024-03-04T00:05:12.986Z,25.47
2024-03-04T00:05:42.973Z,25.47
2024-03-04T00:06:43.052Z,25.49
2024-03-04T00:07:13.264Z,25.48
2024-03-04T00:07:43.368Z,25.47
2024-03-04T00:08:13.351Z,25.45
2024-03-04T00:08:43.477Z,25.48
2024-03-04T00:09:13.481Z,25.47
2024-03-04T00:09:43.608Z,25.48
2024-03-04T00:10:13.666Z,25.44
2024-03-04T00:10:43.828Z,25.48
2024-03-04T00:11:13.774Z,25.48
2024-03-04T00:11:43.790Z,25.47
2024-03-04T00:12:13.805Z,25.48
2024-03-04T00:12:43.929Z,25.45
2024-03-04T00:13:14.057Z,25.47
2024-03-04T00:13:44.088Z,25.48
2024-03-04T00:14:14.148Z,25.47
2024-03-04T00:14:44.207Z,25.48
2024-03-04T00:15:14.241Z,25.49
2024-03-04T00:15:44.289Z,25.47
2024-03-04T00:16:14.337Z,25.47
2024-03-04T00:16:44.412Z,25.47
2024-03-04T00:17:14.464Z,25.47
2024-03-04T00:17:44.528Z,25.48
2024-03-04T00:18:14.531Z,25.47
2024-03-04T00:18:44.556Z,25.45
2024-03-04T00:19:14.623Z,25.47
2024-03-04T00:19:44.656Z,25.47
2024-03-04T00:20:14.675Z,25.48
2024-03-04T00:20:44.731Z,25.48
2024-03-04T00:21:14.736Z,25.47
2024-03-04T00:21:44.769Z,25.47
2024-03-04T00:22:14.837Z,25.47
2024-03-04T00:22:44.869Z,25.47
2024-03-04T00:23:14.884Z,25.48
2024-03-04T00:23:44.938Z,25.47
2024-03-04T00:24:14.961Z,25.48
2024-03-04T00:24:44.987Z,25.45
2024-03-04T00:25:15.049Z,25.48
2024-03-04T00:25:45.152Z,25.47
2024-03-04T00:26:15.169Z,25.44
2024-03-04T00:26:45.204Z,25.47
2024-03-04T00:27:15.225Z,25.47
2024-03-04T00:27:45.251Z,25.45
2024-03-04T00:28:15.319Z,25.47
2024-03-04T00:28:45.437Z,25.47
2024-03-04T00:29:15.346Z,25.47
2024-03-04T00:30:15.505Z,25.48
2024-03-04T00:30:45.417Z,25.48
2024-03-04T00:31:15.573Z,25.47
2024-03-04T00:31:45.547Z,25.49
2024-03-04T00:32:15.581Z,25.47
2024-03-04T00:32:45.693Z,25.47
2024-03-04T00:33:15.699Z,25.47
2024-03-04T00:33:45.726Z,25.48
2024-03-04T00:34:15.807Z,25.45
2024-03-04T00:34:45.849Z,25.48
2024-03-04T00:35:15.888Z,25.49
2024-03-04T00:35:45.903Z,25.49
2024-03-04T00:36:15.965Z,25.47
2024-03-04T00:36:45.976Z,25.48
2024-03-04T00:37:16.044Z,25.45
2024-03-04T00:37:46.086Z,25.48
2024-03-04T00:38:16.129Z,25.45
2024-03-04T00:38:46.163Z,25.47
2024-03-04T00:39:16.188Z,25.47
2024-03-04T00:39:46.226Z,25.47
2024-03-04T00:40:16.278Z,25.48
2024-03-04T00:40:46.284Z,25.47
2024-03-04T00:41:16.308Z,25.47
2024-03-04T00:41:46.346Z,25.44
2024-03-04T00:42:16.447Z,25.47
2024-03-04T00:42:46.514Z,25.47
2024-03-04T00:43:16.602Z,25.45
2024-03-04T00:43:46.641Z,25.48
2024-03-04T00:44:16.656Z,25.45
2024-03-04T00:44:46.695Z,25.45
2024-03-04T00:45:16.722Z,25.48
2024-03-04T00:45:46.764Z,25.45
2024-03-04T00:46:16.805Z,25.45
2024-03-04T00:46:46.833Z,25.45
2024-03-04T00:47:16.875Z,25.44
2024-03-04T00:47:46.930Z,25.47
2024-03-04T00:48:16.971Z,25.45
2024-03-04T00:48:46.982Z,25.45
2024-03-04T00:49:17.068Z,25.45
2024-03-04T00:49:47.088Z,25.45
2024-03-04T00:50:17.110Z,25.45
2024-03-04T00:50:47.140Z,25.47
2024-03-04T00:51:17.218Z,25.47
2024-03-04T00:51:47.236Z,25.47
2024-03-04T00:52:17.328Z,25.45
2024-03-04T00:52:47.384Z,25.44
2024-03-04T00:53:17.506Z,25.45
2024-03-04T00:53:47.657Z,25.44
2024-03-04T00:54:17.538Z,25.42
2024-03-04T00:54:47.556Z,25.44
2024-03-04T00:55:17.632Z,25.44
2024-03-04T00:55:47.670Z,25.45
2024-03-04T00:56:17.705Z,25.41
2024-03-04T00:56:47.750Z,25.47
2024-03-04T00:57:17.785Z,25.45
2024-03-04T00:57:47.813Z,25.42
2024-03-04T00:58:17.980Z,25.44
2024-03-04T00:58:47.988Z,25.44
2024-03-04T00:59:18.016Z,25.44
2024-03-04T00:59:48.046Z,25.44
2024-03-04T01:00:18.077Z,25.42
2024-03-04T01:00:48.147Z,25.44
2024-03-04T01:01:18.236Z,25.42
2024-03-04T01:01:48.201Z,25.44
2024-03-04T01:02:18.207Z,25.44
2024-03-04T01:02:48.318Z,25.42
2024-03-04T01:03:18.321Z,25.42
2024-03-04T01:03:48.429Z,25.42
2024-03-04T01:04:18.572Z,25.42
2024-03-04T01:04:48.602Z,25.42
2024-03-04T01:05:18.717Z,25.42
2024-03-04T01:05:48.772Z,25.44
2024-03-04T01:06:18.777Z,25.41
2024-03-04T01:06:48.796Z,25.42
2024-03-04T01:07:48.866Z,25.42
2024-03-04T01:08:18.983Z,25.42
2024-03-04T01:08:48.983Z,25.42
2024-03-04T01:09:19.097Z,25.42
2024-03-04T01:09:49.214Z,25.42
2024-03-04T01:10:19.299Z,25.42
2024-03-04T01:10:49.605Z,25.44
2024-03-04T01:11:19.263Z,25.42
2024-03-04T01:12:19.262Z,25.42
2024-03-04T01:12:49.296Z,25.44
2024-03-04T01:13:19.337Z,25.44
2024-03-04T01:13:49.355Z,25.44
2024-03-04T01:14:19.383Z,25.45
2024-03-04T01:14:49.418Z,25.45
2024-03-04T01:15:19.465Z,25.44
2024-03-04T01:15:49.504Z,25.45
2024-03-04T01:16:19.555Z,25.42
2024-03-04T01:16:49.610Z,25.44
2024-03-04T01:17:19.642Z,25.42
2024-03-04T01:17:49.677Z,25.45
2024-03-04T01:18:19.816Z,25.42
2024-03-04T01:18:49.725Z,25.44
2024-03-04T01:19:19.842Z,25.45
2024-03-04T01:19:49.903Z,25.42
2024-03-04T01:20:19.999Z,25.42
2024-03-04T01:20:50.023Z,25.44
2024-03-04T01:21:20.044Z,25.42
2024-03-04T01:21:50.077Z,25.44
2024-03-04T01:22:20.189Z,25.40
2024-03-04T01:22:50.217Z,25.45
2024-03-04T01:23:20.246Z,25.45
2024-03-04T01:23:50.304Z,25.45
2024-03-04T01:24:20.344Z,25.47
2024-03-04T01:24:50.377Z,25.47
2024-03-04T01:25:20.432Z,25.47
2024-03-04T01:25:50.482Z,25.44
2024-03-04T01:26:20.524Z,25.44
2024-03-04T01:26:50.550Z,25.45
2024-03-04T01:27:20.576Z,25.44
2024-03-04T01:27:50.627Z,25.42
2024-03-04T01:28:20.678Z,25.44
2024-03-04T01:28:50.744Z,25.42
2024-03-04T01:29:20.762Z,25.42
2024-03-04T01:29:50.811Z,25.44
2024-03-04T01:30:20.821Z,25.42
2024-03-04T01:30:50.873Z,25.41
2024-03-04T01:31:20.921Z,25.42
2024-03-04T01:31:50.941Z,25.42
2024-03-04T01:32:20.976Z,25.41
2024-03-04T01:32:51.052Z,25.42
2024-03-04T01:33:21.091Z,25.40
2024-03-04T01:33:51.144Z,25.40
2024-03-04T01:34:21.201Z,25.42
2024-03-04T01:34:51.260Z,25.40
2024-03-04T01:35:21.304Z,25.41
2024-03-04T01:35:51.322Z,25.41
2024-03-04T01:36:21.348Z,25.41
2024-03-04T01:36:51.381Z,25.41
2024-03-04T01:37:21.464Z,25.42
2024-03-04T01:37:51.531Z,25.41
2024-03-04T01:38:21.570Z,25.38
2024-03-04T01:38:51.589Z,25.38
2024-03-04T01:39:21.623Z,25.38
2024-03-04T01:39:51.643Z,25.40
2024-03-04T01:40:21.766Z,25.41
2024-03-04T01:40:51.675Z,25.40
2024-03-04T01:41:21.709Z,25.38
2024-03-04T01:41:51.734Z,25.40
2024-03-04T01:42:21.792Z,25.40
2024-03-04T01:42:51.825Z,25.40
2024-03-04T01:43:21.900Z,25.42
2024-03-04T01:43:51.927Z,25.38
2024-03-04T01:44:21.960Z,25.41
2024-03-04T01:44:51.997Z,25.40
2024-03-04T01:45:22.022Z,25.41
2024-03-04T01:45:52.047Z,25.41
2024-03-04T01:46:22.140Z,25.40
2024-03-04T01:46:52.170Z,25.40
2024-03-04T01:47:22.317Z,25.41
2024-03-04T01:47:52.238Z,25.41
2024-03-04T01:48:22.265Z,25.40
2024-03-04T01:48:52.301Z,25.40
2024-03-04T01:49:22.419Z,25.41
2024-03-04T01:49:52.326Z,25.41
2024-03-04T01:50:22.347Z,25.41
2024-03-04T01:50:52.394Z,25.41
2024-03-04T01:51:22.403Z,25.41
2024-03-04T01:51:52.448Z,25.41
2024-03-04T01:52:22.590Z,25.41
2024-03-04T01:52:52.510Z,25.41
2024-03-04T01:53:22.571Z,25.40
2024-03-04T01:53:52.583Z,25.40
2024-03-04T01:54:22.609Z,25.40
2024-03-04T01:54:52.644Z,25.40
2024-03-04T01:55:22.695Z,25.38
2024-03-04T01:55:52.698Z,25.38
2024-03-04T01:56:22.733Z,25.40
2024-03-04T01:56:52.777Z,25.41
2024-03-04T01:57:22.797Z,25.41
2024-03-04T01:57:52.827Z,25.40
2024-03-04T01:58:22.900Z,25.40
2024-03-04T01:58:52.918Z,25.40
2024-03-04T01:59:22.954Z,25.41
2024-03-04T01:59:53.008Z,25.41
2024-03-04T02:00:23.029Z,25.41
2024-03-04T02:00:53.106Z,25.40
2024-03-04T02:01:23.258Z,25.40
2024-03-04T02:02:32.132Z,25.38
2024-03-04T02:03:02.200Z,25.38
2024-03-04T02:03:32.274Z,25.40
2024-03-04T02:04:02.405Z,25.40
2024-03-04T02:04:32.504Z,25.38
2024-03-04T02:05:02.433Z,25.37
2024-03-04T02:05:32.483Z,25.41
2024-03-04T02:06:02.584Z,25.40
2024-03-04T02:06:32.686Z,25.38
2024-03-04T02:07:02.776Z,25.41
2024-03-04T02:07:32.806Z,25.40
2024-03-04T02:08:02.754Z,25.37
2024-03-04T02:08:32.856Z,25.40
2024-03-04T02:09:02.899Z,25.38
2024-03-04T02:09:33.015Z,25.41
2024-03-04T02:10:03.051Z,25.40
2024-03-04T02:11:03.092Z,25.41
2024-03-04T02:11:33.210Z,25.38
2024-03-04T02:12:03.282Z,25.40
2024-03-04T02:12:33.286Z,25.37
2024-03-04T02:13:03.417Z,25.38
2024-03-04T02:13:33.499Z,25.41
2024-03-04T02:14:03.512Z,25.40
2024-03-04T02:14:33.618Z,25.41
2024-03-04T02:15:03.765Z,25.41
2024-03-04T02:15:33.760Z,25.41
2024-03-04T02:16:03.769Z,25.41
2024-03-04T02:16:34.052Z,25.40
2024-03-04T02:17:03.959Z,25.40
2024-03-04T02:17:34.101Z,25.41
2024-03-04T02:18:04.193Z,25.41
2024-03-04T02:18:34.174Z,25.40
2024-03-04T02:19:04.189Z,25.41
2024-03-04T02:19:34.290Z,25.40
2024-03-04T02:20:04.250Z,25.42
2024-03-04T02:20:34.231Z,25.41
2024-03-04T02:21:34.340Z,25.41
2024-03-04T02:22:04.354Z,25.42
2024-03-04T02:22:34.562Z,25.41
2024-03-04T02:23:04.470Z,25.41
2024-03-04T02:23:34.648Z,25.42
2024-03-04T02:24:04.620Z,25.38
2024-03-04T02:24:34.746Z,25.38
2024-03-04T02:25:04.758Z,25.40
2024-03-04T02:25:34.947Z,25.38
2024-03-04T02:26:04.966Z,25.41
2024-03-04T02:26:35.077Z,25.41
2024-03-04T02:27:05.196Z,25.42
2024-03-04T02:27:35.326Z,25.40
2024-03-04T02:28:05.393Z,25.41
2024-03-04T02:28:35.485Z,25.41
2024-03-04T02:29:05.464Z,25.41
2024-03-04T02:29:35.457Z,25.41
2024-03-04T02:30:35.522Z,25.40
2024-03-04T02:31:05.547Z,25.38
2024-03-04T02:31:35.652Z,25.40
2024-03-04T02:32:05.649Z,25.40
2024-03-04T02:32:35.655Z,25.41
2024-03-04T02:33:35.758Z,25.40
2024-03-04T02:34:05.800Z,25.40
2024-03-04T02:34:35.784Z,25.41
2024-03-04T02:35:05.970Z,25.41
2024-03-04T02:35:35.958Z,25.40
2024-03-04T02:36:06.074Z,25.38
2024-03-04T02:36:36.191Z,25.42
2024-03-04T02:37:06.336Z,25.40
2024-03-04T02:37:36.386Z,25.42
2024-03-04T02:38:06.413Z,25.40
2024-03-04T02:38:36.438Z,25.40
2024-03-04T02:39:36.482Z,25.40
2024-03-04T02:40:06.638Z,25.41
2024-03-04T02:40:36.765Z,25.38
2024-03-04T02:41:06.671Z,25.40
2024-03-04T02:41:36.783Z,25.41
2024-03-04T02:42:06.781Z,25.40
2024-03-04T02:42:36.914Z,25.41
2024-03-04T02:43:06.951Z,25.42
2024-03-04T02:44:06.990Z,25.38
2024-03-04T02:44:37.107Z,25.40
2024-03-04T02:45:07.232Z,25.40
2024-03-04T02:45:37.325Z,25.38
2024-03-04T02:46:07.379Z,25.40
2024-03-04T02:46:37.518Z,25.38
2024-03-04T02:47:07.415Z,25.40
2024-03-04T02:47:37.698Z,25.38
2024-03-04T02:48:07.604Z,25.40
2024-03-04T02:49:07.698Z,25.40
2024-03-04T02:49:37.822Z,25.38
2024-03-04T02:50:07.745Z,25.38
2024-03-04T02:50:37.865Z,25.40
2024-03-04T02:51:07.977Z,25.38
2024-03-04T02:51:38.090Z,25.40
2024-03-04T02:52:08.097Z,25.38
2024-03-04T02:52:38.314Z,25.37
2024-03-04T02:53:08.305Z,25.41
2024-03-04T02:53:38.306Z,25.41
2024-03-04T02:54:08.448Z,25.40
2024-03-04T02:54:38.540Z,25.38
2024-03-04T02:55:08.709Z,25.38
2024-03-04T02:55:39.052Z,25.40
2024-03-04T02:56:08.802Z,25.38
2024-03-04T02:56:38.914Z,25.40
2024-03-04T02:57:09.040Z,25.40
2024-03-04T02:57:39.040Z,25.40
2024-03-04T02:58:09.106Z,25.38
2024-03-04T02:58:39.139Z,25.40
2024-03-04T02:59:09.147Z,25.38
2024-03-04T02:59:39.264Z,25.40
2024-03-04T03:00:09.388Z,25.41
2024-03-04T03:00:39.616Z,25.40
2024-03-04T03:01:09.655Z,25.42
2024-03-04T03:01:39.645Z,25.38
2024-03-04T03:02:09.840Z,25.40
2024-03-04T03:02:39.573Z,25.41
2024-03-04T03:03:39.752Z,25.41
2024-03-04T03:04:09.709Z,25.38
2024-03-04T03:04:39.840Z,25.40
2024-03-04T03:05:09.831Z,25.40
2024-03-04T03:05:39.902Z,25.40
2024-03-04T03:06:09.981Z,25.41
2024-03-04T03:06:40.082Z,25.38
2024-03-04T03:07:10.207Z,25.40
2024-03-04T03:07:40.311Z,25.40
2024-03-04T03:08:10.308Z,25.40
2024-03-04T03:08:40.389Z,25.40
2024-03-04T03:09:10.469Z,25.38
2024-03-04T03:09:40.489Z,25.41
2024-03-04T03:10:10.566Z,25.41
2024-03-04T03:10:40.755Z,25.38
2024-03-04T03:11:10.714Z,25.41
2024-03-04T03:11:40.896Z,25.41
2024-03-04T03:12:10.869Z,25.40
2024-03-04T03:12:40.991Z,25.38
2024-03-04T03:13:10.995Z,25.38
2024-03-04T03:13:41.137Z,25.40
2024-03-04T03:14:11.158Z,25.41
2024-03-04T03:14:41.157Z,25.38
2024-03-04T03:15:41.308Z,25.37
2024-03-04T03:16:11.394Z,25.41
2024-03-04T03:16:41.446Z,25.40
2024-03-04T03:17:11.424Z,25.40
2024-03-04T03:17:41.593Z,25.40
2024-03-04T03:18:11.649Z,25.38
2024-03-04T03:18:41.634Z,25.38
2024-03-04T03:19:11.647Z,25.37
2024-03-04T03:20:11.749Z,25.37
2024-03-04T03:20:41.760Z,25.38
2024-03-04T03:21:41.826Z,25.38
2024-03-04T03:22:11.965Z,25.37
2024-03-04T03:22:41.988Z,25.37
2024-03-04T03:23:11.994Z,25.40
2024-03-04T03:23:42.106Z,25.38
2024-03-04T03:24:12.221Z,25.41
2024-03-04T03:24:42.215Z,25.40
2024-03-04T03:25:12.323Z,25.38
2024-03-04T03:25:42.378Z,25.40
2024-03-04T03:26:12.393Z,25.40
2024-03-04T03:26:42.510Z,25.38
2024-03-04T03:27:12.573Z,25.40
2024-03-04T03:27:42.638Z,25.38
2024-03-04T03:28:12.740Z,25.38
2024-03-04T03:28:42.901Z,25.38
2024-03-04T03:29:12.927Z,25.38
2024-03-04T03:29:42.954Z,25.37
2024-03-04T03:30:12.954Z,25.38
2024-03-04T03:31:13.097Z,25.38
2024-03-04T03:31:43.167Z,25.38
2024-03-04T03:32:13.177Z,25.38
2024-03-04T03:32:43.262Z,25.40
2024-03-04T03:33:13.294Z,25.38
2024-03-04T03:33:43.293Z,25.37
2024-03-04T03:34:13.392Z,25.37
2024-03-04T03:34:43.454Z,25.37
2024-03-04T03:35:13.444Z,25.37
2024-03-04T03:35:43.422Z,25.38
2024-03-04T03:36:13.550Z,25.37
2024-03-04T03:36:43.599Z,25.40
2024-03-04T03:37:13.644Z,25.38
2024-03-04T03:37:43.765Z,25.37
2024-03-04T03:38:13.714Z,25.36
2024-03-04T03:38:43.784Z,25.38
2024-03-04T03:39:13.783Z,25.38
2024-03-04T03:39:43.791Z,25.37
2024-03-04T03:40:13.802Z,25.34
2024-03-04T03:40:44.027Z,25.38
2024-03-04T03:41:13.919Z,25.38
2024-03-04T03:41:44.032Z,25.36
2024-03-04T03:42:14.029Z,25.37
2024-03-04T03:42:44.146Z,25.37
2024-03-04T03:43:14.333Z,25.37
2024-03-04T03:43:44.419Z,25.37
2024-03-04T03:44:14.432Z,25.37
2024-03-04T03:44:44.416Z,25.36
2024-03-04T03:45:44.506Z,25.37
2024-03-04T03:46:14.663Z,25.37
2024-03-04T03:46:44.702Z,25.36
2024-03-04T03:47:14.687Z,25.36
2024-03-04T03:47:44.876Z,25.37
2024-03-04T03:48:14.893Z,25.37
2024-03-04T03:48:44.936Z,25.36
2024-03-04T03:49:14.948Z,25.36
2024-03-04T03:49:44.980Z,25.34
2024-03-04T03:50:14.989Z,25.36
2024-03-04T03:50:45.088Z,25.33
2024-03-04T03:51:15.195Z,25.34
2024-03-04T03:51:45.207Z,25.37
2024-03-04T03:52:15.223Z,25.36
2024-03-04T03:52:45.274Z,25.37
2024-03-04T03:53:15.299Z,25.34
2024-03-04T03:53:45.295Z,25.36
2024-03-04T03:54:15.412Z,25.34
2024-03-04T03:54:45.514Z,25.34
2024-03-04T03:55:15.669Z,25.37
2024-03-04T03:55:45.768Z,25.36
2024-03-04T03:56:15.771Z,25.36
2024-03-04T03:56:45.901Z,25.36
2024-03-04T03:57:15.887Z,25.37
2024-03-04T03:57:54.988Z,25.36
2024-03-04T03:58:16.065Z,25.34
2024-03-04T03:58:46.101Z,25.37
2024-03-04T03:59:16.074Z,25.36
2024-03-04T03:59:46.187Z,25.36
2024-03-04T04:00:16.307Z,25.36
2024-03-04T04:00:46.557Z,25.36
2024-03-04T04:01:16.565Z,25.34
2024-03-04T04:01:46.569Z,25.34
2024-03-04T04:02:16.669Z,25.37
2024-03-04T04:02:46.885Z,25.36
2024-03-04T04:03:16.702Z,25.34
2024-03-04T04:04:16.839Z,25.36
2024-03-04T04:04:47.057Z,25.34
2024-03-04T04:05:16.974Z,25.36
2024-03-04T04:05:47.043Z,25.37
2024-03-04T04:06:17.115Z,25.36
2024-03-04T04:06:47.216Z,25.36
2024-03-04T04:07:17.335Z,25.37
2024-03-04T04:07:47.366Z,25.37
2024-03-04T04:08:17.323Z,25.36
2024-03-04T04:08:47.392Z,25.36
2024-03-04T04:09:17.497Z,25.34
2024-03-04T04:09:47.598Z,25.34
2024-03-04T04:10:17.698Z,25.34
2024-03-04T04:10:47.847Z,25.34
2024-03-04T04:11:17.833Z,25.36
2024-03-04T04:11:47.954Z,25.37
2024-03-04T04:12:18.001Z,25.34
2024-03-04T04:12:47.984Z,25.34
2024-03-04T04:13:18.132Z,25.34
2024-03-04T04:13:48.135Z,25.36
2024-03-04T04:14:18.116Z,25.34
2024-03-04T04:14:48.234Z,25.36
2024-03-04T04:15:18.352Z,25.36
2024-03-04T04:15:48.338Z,25.34
2024-03-04T04:16:18.534Z,25.34
2024-03-04T04:16:48.542Z,25.37
2024-03-04T04:17:18.524Z,25.36
2024-03-04T04:18:18.620Z,25.36
2024-03-04T04:18:48.726Z,25.34
2024-03-04T04:19:18.761Z,25.33
2024-03-04T04:19:48.777Z,25.33
2024-03-04T04:20:18.777Z,25.34
2024-03-04T04:20:48.900Z,25.34
2024-03-04T04:21:19.009Z,25.36
2024-03-04T04:21:49.008Z,25.36
2024-03-04T04:22:19.128Z,25.33
2024-03-04T04:22:49.109Z,25.34
2024-03-04T04:23:19.228Z,25.34
2024-03-04T04:23:49.338Z,25.34
2024-03-04T04:24:19.450Z,25.36
2024-03-04T04:24:49.559Z,25.31
2024-03-04T04:25:19.728Z,25.34
2024-03-04T04:25:49.784Z,25.34
2024-03-04T04:26:19.761Z,25.33
2024-03-04T04:26:49.773Z,25.36
2024-03-04T04:27:19.765Z,25.31
2024-03-04T04:28:19.897Z,25.34
2024-03-04T04:28:49.888Z,25.33
2024-03-04T04:29:19.989Z,25.31
2024-03-04T04:29:50.006Z,25.31
2024-03-04T04:30:19.997Z,25.33
2024-03-04T04:31:20.092Z,25.33
2024-03-04T04:31:50.180Z,25.33
2024-03-04T04:32:20.162Z,25.33
2024-03-04T04:32:50.260Z,25.31
2024-03-04T04:33:50.232Z,25.33
2024-03-04T04:34:20.315Z,25.33
2024-03-04T04:34:50.342Z,25.33
2024-03-04T04:35:20.329Z,25.34
2024-03-04T04:36:20.418Z,25.33
2024-03-04T04:36:50.417Z,25.33
2024-03-04T04:37:20.790Z,25.34
2024-03-04T04:37:50.570Z,25.26
2024-03-04T04:38:20.566Z,25.26
2024-03-04T04:38:50.686Z,25.27
2024-03-04T04:39:20.685Z,25.26
2024-03-04T04:39:50.818Z,25.28
2024-03-04T04:40:20.944Z,25.28
2024-03-04T04:40:50.933Z,25.28
2024-03-04T04:41:20.960Z,25.30
2024-03-04T04:41:50.933Z,25.31
2024-03-04T04:42:21.059Z,25.31
2024-03-04T04:42:51.053Z,25.28
2024-03-04T04:43:21.274Z,25.33
2024-03-04T04:43:51.288Z,25.31
2024-03-04T04:44:21.404Z,25.33
2024-03-04T04:44:51.395Z,25.27
2024-03-04T04:45:21.506Z,25.27
2024-03-04T04:45:51.525Z,25.28
2024-03-04T04:46:21.622Z,25.28
2024-03-04T04:46:51.562Z,25.27
2024-03-04T04:47:21.554Z,25.23
2024-03-04T04:47:51.604Z,25.27
2024-03-04T04:48:21.590Z,25.27
2024-03-04T04:48:51.588Z,25.26
2024-03-04T04:49:51.766Z,25.23
2024-03-04T04:50:21.798Z,25.23
2024-03-04T04:50:51.921Z,25.26
2024-03-04T04:51:22.022Z,25.27
2024-03-04T04:51:52.026Z,25.28
2024-03-04T04:52:22.145Z,25.30
2024-03-04T04:52:52.160Z,25.30
2024-03-04T04:53:22.273Z,25.30
2024-03-04T04:53:52.265Z,25.33
2024-03-04T04:54:52.347Z,25.34
2024-03-04T04:55:22.485Z,25.37
2024-03-04T04:55:52.552Z,25.38
2024-03-04T04:56:22.535Z,25.42
2024-03-04T04:56:52.559Z,25.42
2024-03-04T04:57:22.538Z,25.44
2024-03-04T04:57:52.654Z,25.47
2024-03-04T04:58:22.790Z,25.48
2024-03-04T04:58:52.795Z,25.52
2024-03-04T04:59:22.791Z,25.54
2024-03-04T04:59:52.793Z,25.54
2024-03-04T05:00:22.793Z,25.58
2024-03-04T05:00:52.961Z,25.61
2024-03-04T05:01:23.015Z,25.62
2024-03-04T05:01:53.085Z,25.64
2024-03-04T05:02:23.108Z,25.67
2024-03-04T05:02:55.305Z,25.69
2024-03-04T05:03:34.571Z,25.72
2024-03-04T05:04:07.021Z,25.74
2024-03-04T05:04:38.762Z,25.74
2024-03-04T05:04:57.439Z,25.74
2024-03-04T05:05:23.755Z,25.79
2024-03-04T05:05:53.852Z,25.79
2024-03-04T05:06:23.703Z,25.81
2024-03-04T05:06:53.779Z,25.82
2024-03-04T05:07:23.992Z,25.86
2024-03-04T05:07:53.972Z,25.89
2024-03-04T05:08:24.044Z,25.91
2024-03-04T05:08:54.139Z,25.89
2024-03-04T05:09:24.206Z,25.91
2024-03-04T05:09:54.578Z,25.93
2024-03-04T05:10:24.484Z,25.95
2024-03-04T05:10:54.467Z,25.95
2024-03-04T05:11:24.596Z,25.96
2024-03-04T05:11:54.601Z,25.96
2024-03-04T05:12:24.609Z,25.97
2024-03-04T05:12:54.610Z,25.99
2024-03-04T05:13:24.752Z,25.97
2024-03-04T05:13:54.732Z,25.96
2024-03-04T05:14:24.732Z,25.97
2024-03-04T05:14:54.730Z,25.97
2024-03-04T05:15:24.735Z,25.95
2024-03-04T05:15:54.735Z,25.99
2024-03-04T05:16:24.755Z,25.99
2024-03-04T05:16:54.778Z,26.00
2024-03-04T05:17:24.880Z,26.00
2024-03-04T05:17:54.903Z,26.02
2024-03-04T05:18:24.893Z,25.99
2024-03-04T05:18:55.013Z,26.02
2024-03-04T05:19:25.159Z,26.02
2024-03-04T05:19:55.144Z,25.95
2024-03-04T05:20:25.266Z,25.97
2024-03-04T05:20:56.976Z,25.96
2024-03-04T05:21:25.400Z,25.95
2024-03-04T05:21:55.487Z,25.99
2024-03-04T05:22:25.487Z,25.99
2024-03-04T05:22:55.740Z,26.00
2024-03-04T05:23:25.605Z,26.00
2024-03-04T05:23:55.610Z,26.03
2024-03-04T05:24:25.661Z,26.00
2024-03-04T05:24:55.698Z,26.05
2024-03-04T05:25:25.847Z,26.05
2024-03-04T05:25:55.736Z,26.03
2024-03-04T05:26:25.929Z,26.07
2024-03-04T05:26:55.783Z,26.06
2024-03-04T05:27:28.895Z,26.06
2024-03-04T05:27:55.791Z,25.99
2024-03-04T05:28:55.905Z,26.00
2024-03-04T05:29:25.893Z,26.02
2024-03-04T05:30:32.231Z,26.00
2024-03-04T05:31:02.413Z,26.02
2024-03-04T05:31:32.478Z,26.02
2024-03-04T05:32:02.461Z,25.99
2024-03-04T05:32:32.408Z,25.93
2024-03-04T05:33:02.528Z,25.92
2024-03-04T05:33:32.595Z,25.91
2024-03-04T05:34:02.575Z,25.93
2024-03-04T05:34:32.872Z,25.97
2024-03-04T05:35:02.716Z,25.97
2024-03-04T05:35:32.867Z,25.95
2024-03-04T05:36:02.833Z,25.97
2024-03-04T05:36:32.921Z,25.93
2024-03-04T05:37:03.031Z,25.92
2024-03-04T05:37:33.151Z,25.96
2024-03-04T05:38:03.296Z,25.91
2024-03-04T05:38:33.250Z,25.93
2024-03-04T05:39:03.411Z,25.99
2024-03-04T05:39:33.449Z,25.99
2024-03-04T05:40:03.412Z,26.05
2024-03-04T05:40:33.619Z,26.02
2024-03-04T05:41:03.497Z,26.06
2024-03-04T05:41:33.715Z,26.07
2024-03-04T05:42:03.590Z,26.05
2024-03-04T05:42:33.784Z,26.06
2024-03-04T05:43:03.783Z,26.09
2024-03-04T05:43:33.842Z,26.07
2024-03-04T05:44:04.021Z,26.10
2024-03-04T05:44:33.899Z,26.12
2024-03-04T05:45:04.081Z,26.15
2024-03-04T05:45:34.073Z,26.16
2024-03-04T05:46:04.155Z,26.15
2024-03-04T05:46:34.150Z,26.16
2024-03-04T05:47:04.148Z,26.17
2024-03-04T05:47:34.326Z,26.20
2024-03-04T05:48:04.337Z,26.20
2024-03-04T05:48:34.458Z,26.20
2024-03-04T05:49:04.463Z,26.22
2024-03-04T05:49:34.610Z,26.24
2024-03-04T05:50:04.579Z,26.20
2024-03-04T05:50:36.045Z,26.22
2024-03-04T05:51:04.977Z,26.23
2024-03-04T05:51:34.848Z,26.22
2024-03-04T05:52:05.148Z,26.24
2024-03-04T05:52:35.086Z,26.23
2024-03-04T05:53:05.182Z,26.29
2024-03-04T05:53:35.162Z,26.26
2024-03-04T05:54:05.284Z,26.27
2024-03-04T05:54:35.419Z,26.29
2024-03-04T05:55:05.451Z,26.33
2024-03-04T05:55:35.574Z,26.32
2024-03-04T05:56:05.523Z,26.33
2024-03-04T05:56:35.569Z,26.33
2024-03-04T05:57:05.561Z,26.33
2024-03-04T05:57:35.555Z,26.34
2024-03-04T05:58:05.765Z,26.34
2024-03-04T05:58:35.772Z,26.36
2024-03-04T05:59:05.894Z,26.34
2024-03-04T05:59:35.888Z,26.39
2024-03-04T06:00:06.067Z,26.39
2024-03-04T06:00:36.099Z,26.37
2024-03-04T06:01:06.140Z,26.42
2024-03-04T06:01:36.444Z,26.39
2024-03-04T06:02:06.287Z,26.40
2024-03-04T06:02:36.402Z,26.40
2024-03-04T06:03:06.420Z,26.40
2024-03-04T06:03:36.474Z,26.42
2024-03-04T06:04:06.528Z,26.40
2024-03-04T06:04:37.562Z,26.39
2024-03-04T06:05:06.754Z,26.43
2024-03-04T06:05:36.629Z,26.42
2024-03-04T06:06:06.818Z,26.40
2024-03-04T06:06:36.816Z,26.40
2024-03-04T06:07:06.905Z,26.42
2024-03-04T06:07:36.985Z,26.42
2024-03-04T06:08:07.021Z,26.40
2024-03-04T06:08:37.218Z,26.42
2024-03-04T06:09:07.062Z,26.42
2024-03-04T06:09:37.286Z,26.43
2024-03-04T06:10:07.292Z,26.40
2024-03-04T06:10:37.566Z,26.42
2024-03-04T06:11:07.530Z,26.42
2024-03-04T06:11:37.663Z,26.43
2024-03-04T06:12:07.712Z,26.43
2024-03-04T06:12:37.576Z,26.42
2024-03-04T06:13:07.903Z,26.43
2024-03-04T06:13:37.834Z,26.44
2024-03-04T06:14:07.892Z,26.43
2024-03-04T06:14:37.965Z,26.44
2024-03-04T06:15:07.936Z,26.43
2024-03-04T06:15:38.198Z,26.46
2024-03-04T06:16:08.124Z,26.43
2024-03-04T06:16:38.281Z,26.44
2024-03-04T06:17:08.153Z,26.47
2024-03-04T06:17:38.325Z,26.46
2024-03-04T06:18:08.353Z,26.46
2024-03-04T06:18:38.374Z,26.46
2024-03-04T06:19:08.554Z,26.47
2024-03-04T06:19:38.616Z,26.46
2024-03-04T06:20:08.728Z,26.47
2024-03-04T06:20:38.727Z,26.47
2024-03-04T06:21:08.917Z,26.47
2024-03-04T06:21:38.764Z,26.48
2024-03-04T06:22:39.022Z,26.43
2024-03-04T06:23:09.171Z,26.43
2024-03-04T06:23:39.099Z,26.46
2024-03-04T06:24:09.090Z,26.44
2024-03-04T06:24:39.247Z,26.44
2024-03-04T06:25:09.255Z,26.47
2024-03-04T06:25:39.314Z,26.43
2024-03-04T06:26:09.492Z,26.47
2024-03-04T06:26:39.361Z,26.47
2024-03-04T06:27:09.408Z,26.44
2024-03-04T06:27:39.423Z,26.47
2024-03-04T06:28:09.497Z,26.48
2024-03-04T06:28:39.552Z,26.48
2024-03-04T06:29:09.497Z,26.48
2024-03-04T06:29:39.499Z,26.48
2024-03-04T06:30:09.482Z,26.48
2024-03-04T06:30:39.721Z,26.48
2024-03-04T06:31:09.748Z,26.53
2024-03-04T06:31:39.913Z,26.51
2024-03-04T06:32:09.794Z,26.50
2024-03-04T06:32:39.889Z,26.51
2024-03-04T06:33:10.154Z,26.53
2024-03-04T06:33:48.724Z,26.54
2024-03-04T06:34:16.807Z,26.54
2024-03-04T06:34:40.138Z,26.54
2024-03-04T06:35:10.316Z,26.53
2024-03-04T06:35:40.314Z,26.54
2024-03-04T06:36:10.271Z,26.54
2024-03-04T06:36:40.487Z,26.54
2024-03-04T06:37:10.493Z,26.54
2024-03-04T06:37:40.732Z,26.54
2024-03-04T06:38:10.618Z,26.55
2024-03-04T06:38:40.735Z,26.55
2024-03-04T06:39:10.807Z,26.55
2024-03-04T06:39:40.773Z,26.55
2024-03-04T06:40:11.188Z,26.55
2024-03-04T06:40:41.026Z,26.57
2024-03-04T06:41:11.137Z,26.57
2024-03-04T06:41:41.139Z,26.54